Meteorología y climatología de Navarra
Datos de la estación - Meteo Navarra

Estación de Carcastillo (La Oliva) GN

Altitud 343 m.


Datos desde el 11/01/2019 hasta el 12/01/2019 en horario solar
Los datos son PROVISIONALES

Anterior Página 1 de 1 Siguiente Descargar: Formato para Excel 2000 o superior   Formato csv   Formato para OpenOffice Calc
Fecha Temperatura Humedad relativa Radiación global Insolación Precipitación Velocidad viento 10 m Velocidad viento 10 m Dirección viento 10 m
ºC % W/m² s l/m² m/s km/h º
11/01/2019 0:00 0.2 67 0.0 0 0.0 4.4 15.9 335
11/01/2019 0:10 0.4 67 0.0 0 0.0 5.4 19.5 331
11/01/2019 0:20 0.5 67 0.0 0 0.0 6.5 23.4 325
11/01/2019 0:30 0.4 67 0.0 0 0.0 6.1 21.9 327
11/01/2019 0:40 0.5 67 0.0 0 0.0 5.9 21.1 331
11/01/2019 0:50 0.5 67 0.0 0 0.0 5.7 20.5 333
11/01/2019 1:00 0.4 67 0.0 0 0.0 6.1 22.0 343
11/01/2019 1:10 0.4 67 0.0 0 0.0 6.2 22.2 344
11/01/2019 1:20 0.4 67 0.0 0 0.0 6.3 22.8 342
11/01/2019 1:30 0.5 67 0.0 0 0.0 6.6 23.8 342
11/01/2019 1:40 0.5 67 0.0 0 0.0 6.2 22.4 351
11/01/2019 1:50 0.3 68 0.0 0 0.0 6.0 21.5 358
11/01/2019 2:00 0.4 68 0.0 0 0.0 6.3 22.7 354
11/01/2019 2:10 0.4 68 0.0 0 0.0 6.8 24.6 352
11/01/2019 2:20 0.5 68 0.0 0 0.0 7.0 25.0 343
11/01/2019 2:30 0.5 68 0.0 0 0.0 6.4 23.1 342
11/01/2019 2:40 0.6 68 0.0 0 0.0 6.4 22.9 340
11/01/2019 2:50 0.7 68 0.0 0 0.0 6.3 22.6 340
11/01/2019 3:00 0.7 68 0.0 0 0.0 5.8 20.8 335
11/01/2019 3:10 0.7 68 0.0 0 0.0 5.6 20.2 332
11/01/2019 3:20 0.7 68 0.0 0 0.0 5.4 19.5 327
11/01/2019 3:30 0.7 68 0.0 0 0.0 5.6 20.1 320
11/01/2019 3:40 0.7 69 0.0 0 0.0 6.4 23.2 318
11/01/2019 3:50 0.6 68 0.0 0 0.0 6.3 22.5 318
11/01/2019 4:00 0.5 68 0.0 0 0.0 6.3 22.5 316
11/01/2019 4:10 0.5 67 0.0 0 0.0 6.3 22.6 318
11/01/2019 4:20 0.4 66 0.0 0 0.0 8.1 29.1 321
11/01/2019 4:30 0.4 65 0.0 0 0.0 8.0 28.8 320
11/01/2019 4:40 0.4 66 0.0 0 0.0 7.5 26.9 322
11/01/2019 4:50 0.3 66 0.0 0 0.0 6.4 22.9 320
11/01/2019 5:00 0.1 66 0.0 0 0.0 5.1 18.5 321
11/01/2019 5:10 0.1 65 0.0 0 0.0 5.2 18.7 326
11/01/2019 5:20 -0.1 65 0.0 0 0.0 5.9 21.2 320
11/01/2019 5:30 -0.1 64 0.0 0 0.0 6.3 22.7 315
11/01/2019 5:40 -0.0 64 0.0 0 0.0 6.7 24.3 314
11/01/2019 5:50 -0.0 63 0.0 0 0.0 6.3 22.8 320
11/01/2019 6:00 -0.2 63 0.0 0 0.0 6.7 24.1 318
11/01/2019 6:10 -0.1 63 0.0 0 0.0 6.5 23.4 314
11/01/2019 6:20 -0.2 63 0.0 0 0.0 5.6 20.1 305
11/01/2019 6:30 -0.2 63 0.0 0 0.0 5.4 19.6 305
11/01/2019 6:40 -0.1 63 0.0 0 0.0 5.7 20.4 312
11/01/2019 6:50 -0.2 62 0.0 0 0.0 4.4 15.9 312
11/01/2019 7:00 -0.2 62 0.0 0 0.0 4.0 14.3 302
11/01/2019 7:10 -0.2 62 0.0 0 0.0 3.6 12.9 286
11/01/2019 7:20 -0.2 62 0.0 0 0.0 4.5 16.0 276
11/01/2019 7:30 -0.3 63 0.0 0 0.0 4.6 16.6 269
11/01/2019 7:40 -0.2 62 0.0 0 0.0 4.5 16.3 272
11/01/2019 7:50 -0.2 62 7.2 0 0.0 4.7 16.8 271
11/01/2019 8:00 -0.2 62 30.2 316 0.0 4.9 17.7 272
11/01/2019 8:10 -0.1 61 51.7 600 0.0 4.4 15.8 282
11/01/2019 8:20 0.2 60 75.3 600 0.0 4.6 16.7 274
11/01/2019 8:30 0.2 61 100.1 600 0.0 4.2 15.1 279
11/01/2019 8:40 0.6 60 84.2 350 0.0 4.4 16.0 279
11/01/2019 8:50 0.8 59 150.0 600 0.0 3.4 12.2 280
11/01/2019 9:00 1.3 57 179.7 600 0.0 3.4 12.4 300
11/01/2019 9:10 2.0 56 213.7 600 0.0 4.9 17.6 271
11/01/2019 9:20 2.2 55 249.8 600 0.0 4.7 16.9 282
11/01/2019 9:30 2.7 52 276.2 600 0.0 2.6 9.3 309
11/01/2019 9:40 3.3 48 300.5 600 0.0 3.9 14.0 294
11/01/2019 9:50 3.8 46 325.0 600 0.0 4.1 14.8 293
11/01/2019 10:00 4.0 46 340.5 600 0.0 4.4 15.8 301
11/01/2019 10:10 4.2 47 352.0 600 0.0 3.8 13.5 305
11/01/2019 10:20 4.5 48 364.7 600 0.0 4.9 17.5 292
11/01/2019 10:30 4.5 48 376.9 600 0.0 5.1 18.5 299
11/01/2019 10:40 4.6 48 403.5 600 0.0 6.0 21.7 290
11/01/2019 10:50 4.8 47 426.3 600 0.0 6.1 21.8 286
11/01/2019 11:00 4.9 47 449.3 600 0.0 5.9 21.3 293
11/01/2019 11:10 5.2 46 479.0 600 0.0 5.5 19.7 300
11/01/2019 11:20 5.6 45 502.2 600 0.0 5.5 19.7 299
11/01/2019 11:30 5.7 45 517.3 600 0.0 5.8 20.8 306
11/01/2019 11:40 6.0 45 504.4 600 0.0 6.0 21.4 316
11/01/2019 11:50 6.1 44 509.3 600 0.0 6.1 21.9 316
11/01/2019 12:00 6.2 44 485.9 600 0.0 6.9 24.9 323
11/01/2019 12:10 6.3 43 469.4 600 0.0 6.6 23.7 337
11/01/2019 12:20 6.4 43 466.4 600 0.0 7.3 26.3 351
11/01/2019 12:30 6.6 43 465.3 600 0.0 8.1 29.1 351
11/01/2019 12:40 6.6 43 464.3 600 0.0 8.8 31.5 358
11/01/2019 12:50 6.5 43 458.9 600 0.0 9.2 33.2 355
11/01/2019 13:00 6.5 43 453.8 600 0.0 10.8 39.0 352
11/01/2019 13:10 6.5 44 445.0 600 0.0 10.4 37.5 358
11/01/2019 13:20 6.4 43 437.5 600 0.0 9.9 35.6 357
11/01/2019 13:30 6.6 43 426.8 600 0.0 8.8 31.7 355
11/01/2019 13:40 6.9 43 413.2 600 0.0 8.3 29.8 358
11/01/2019 13:50 6.9 42 404.6 600 0.0 8.0 28.7 352
11/01/2019 14:00 6.9 42 408.6 600 0.0 8.8 31.8 359
11/01/2019 14:10 7.1 42 406.5 600 0.0 8.9 32.0 5
11/01/2019 14:20 7.2 41 386.1 600 0.0 8.5 30.6 11
11/01/2019 14:30 7.3 41 360.9 600 0.0 8.1 29.2 6
11/01/2019 14:40 7.2 41 327.3 600 0.0 7.2 26.1 354
11/01/2019 14:50 7.1 40 300.1 600 0.0 6.2 22.4 341
11/01/2019 15:00 7.1 40 278.7 600 0.0 6.1 21.9 332
11/01/2019 15:10 7.0 41 258.1 600 0.0 7.1 25.5 336
11/01/2019 15:20 6.9 41 237.5 600 0.0 5.9 21.3 338
11/01/2019 15:30 6.7 41 215.0 600 0.0 6.2 22.4 330
11/01/2019 15:40 6.7 41 186.8 600 0.0 5.3 19.1 336
11/01/2019 15:50 6.5 42 158.4 600 0.0 5.2 18.7 315
11/01/2019 16:00 6.4 42 127.9 600 0.0 4.5 16.2 312
11/01/2019 16:10 6.1 42 85.3 578 0.0 4.5 16.3 303
11/01/2019 16:20 5.9 43 75.5 600 0.0 4.8 17.1 308
11/01/2019 16:30 5.7 43 46.0 506 0.0 4.5 16.3 300
11/01/2019 16:40 5.3 44 24.6 76 0.0 4.9 17.6 294
11/01/2019 16:50 5.0 45 1.1 0 0.0 4.5 16.0 298
11/01/2019 17:00 4.6 46 0.0 0 0.0 4.9 17.5 290
11/01/2019 17:10 4.3 47 0.0 0 0.0 4.9 17.7 307
11/01/2019 17:20 4.0 49 0.0 0 0.0 4.6 16.5 305
11/01/2019 17:30 3.8 49 0.0 0 0.0 5.7 20.7 313
11/01/2019 17:40 3.7 49 0.0 0 0.0 6.1 21.9 322
11/01/2019 17:50 3.7 49 0.0 0 0.0 7.3 26.2 325
11/01/2019 18:00 3.6 50 0.0 0 0.0 6.7 24.0 318
11/01/2019 18:10 3.6 50 0.0 0 0.0 5.7 20.4 316
11/01/2019 18:20 3.5 50 0.0 0 0.0 6.0 21.4 319
11/01/2019 18:30 3.4 50 0.0 0 0.0 6.8 24.6 324
11/01/2019 18:40 3.4 50 0.0 0 0.0 6.6 23.9 324
11/01/2019 18:50 3.2 51 0.0 0 0.0 5.0 18.0 317
11/01/2019 19:00 3.1 52 0.0 0 0.0 4.7 17.0 309
11/01/2019 19:10 3.0 53 0.0 0 0.0 5.6 20.0 313
11/01/2019 19:20 2.8 55 0.0 0 0.0 5.5 19.8 310
11/01/2019 19:30 2.9 57 0.0 0 0.0 6.1 22.1 310
11/01/2019 19:40 2.9 57 0.0 0 0.0 6.1 22.1 315
11/01/2019 19:50 2.8 58 0.0 0 0.0 5.9 21.1 315
11/01/2019 20:00 2.9 58 0.0 0 0.0 4.0 14.5 298
11/01/2019 20:10 2.8 59 0.0 0 0.0 4.6 16.4 300
11/01/2019 20:20 3.0 59 0.0 0 0.0 7.3 26.1 318
11/01/2019 20:30 3.2 59 0.0 0 0.0 8.2 29.4 321
11/01/2019 20:40 3.2 59 0.0 0 0.0 6.9 24.8 316
11/01/2019 20:50 3.2 58 0.0 0 0.0 6.5 23.3 314
11/01/2019 21:00 3.2 58 0.0 0 0.0 6.3 22.7 315
11/01/2019 21:10 3.2 58 0.0 0 0.0 5.7 20.4 307
11/01/2019 21:20 3.1 58 0.0 0 0.0 5.1 18.3 307
11/01/2019 21:30 3.1 59 0.0 0 0.0 5.4 19.4 302
11/01/2019 21:40 3.1 60 0.0 0 0.0 5.3 19.1 308
11/01/2019 21:50 3.1 61 0.0 0 0.0 4.6 16.4 303
11/01/2019 22:00 3.1 61 0.0 0 0.0 4.3 15.6 298
11/01/2019 22:10 3.2 63 0.0 0 0.0 4.4 15.8 293
11/01/2019 22:20 3.2 63 0.0 0 0.0 5.2 18.6 310
11/01/2019 22:30 3.1 64 0.0 0 0.0 4.7 16.9 308
11/01/2019 22:40 3.1 64 0.0 0 0.0 4.4 16.0 308
11/01/2019 22:50 3.1 64 0.0 0 0.0 6.5 23.3 309
11/01/2019 23:00 3.2 64 0.0 0 0.0 6.2 22.4 315
11/01/2019 23:10 3.3 64 0.0 0 0.0 6.3 22.6 315
11/01/2019 23:20 3.4 64 0.0 0 0.0 5.5 19.9 309
11/01/2019 23:30 3.3 65 0.0 0 0.0 4.4 15.8 306
11/01/2019 23:40 3.3 66 0.0 0 0.0 5.3 19.1 304
11/01/2019 23:50 3.3 66 0.0 0 0.0 6.0 21.4 312
Anterior Página 1 de 1 Siguiente

NOTA: Tipo de datos según el color:
   - Valores diarios o 10 minutos correctos
   - Valores diarios calculados a partir de un número de datos 10 minutos menor que 144 y mayor que 120, o de un número de datos semihorarios menor que 48 y mayor que 40 (caso de las estaciones de Riegos de Navarra y del MARM)
   - Valores diez minutos estimados


Contacto        Enlaces        Aviso legal